createdAt,value
2023-05-15T00:00:16.927Z,96
2023-05-15T00:00:47.389Z,96
2023-05-15T00:01:19.888Z,96
2023-05-15T00:01:51.612Z,96
2023-05-15T00:02:23.499Z,96
2023-05-15T00:02:55.539Z,96
2023-05-15T00:03:27.571Z,96
2023-05-15T00:03:59.637Z,96
2023-05-15T00:04:31.400Z,96
2023-05-15T00:05:04.700Z,96
2023-05-15T00:05:19.695Z,96
2023-05-15T00:06:04.273Z,96
2023-05-15T00:06:35.269Z,96
2023-05-15T00:07:07.139Z,96
2023-05-15T00:07:39.263Z,96
2023-05-15T00:08:11.297Z,96
2023-05-15T00:08:43.317Z,96
2023-05-15T00:09:15.059Z,96
2023-05-15T00:09:47.009Z,96
2023-05-15T00:10:19.578Z,96
2023-05-15T00:11:01.065Z,96
2023-05-15T00:11:23.179Z,96
2023-05-15T00:11:55.050Z,96
2023-05-15T00:12:27.039Z,96
2023-05-15T00:12:59.043Z,96
2023-05-15T00:13:30.908Z,96
2023-05-15T00:14:03.517Z,96
2023-05-15T00:14:34.860Z,96
2023-05-15T00:15:07.931Z,96
2023-05-15T00:15:38.934Z,96
2023-05-15T00:16:10.889Z,96
2023-05-15T00:16:43.418Z,96
2023-05-15T00:17:14.982Z,96
2023-05-15T00:17:46.774Z,96
2023-05-15T00:18:03.704Z,96
2023-05-15T00:18:46.773Z,96
2023-05-15T00:19:19.259Z,96
2023-05-15T00:19:51.028Z,96
2023-05-15T00:20:22.866Z,96
2023-05-15T00:20:54.738Z,96
2023-05-15T00:21:26.780Z,96
2023-05-15T00:21:58.697Z,96
2023-05-15T00:22:30.630Z,96
2023-05-15T00:23:03.126Z,96
2023-05-15T00:23:34.774Z,96
2023-05-15T00:24:06.640Z,96
2023-05-15T00:24:38.487Z,96
2023-05-15T00:25:10.783Z,96
2023-05-15T00:25:42.532Z,96
2023-05-15T00:26:14.523Z,96
2023-05-15T00:26:46.433Z,96
2023-05-15T00:27:03.027Z,96
2023-05-15T00:27:34.422Z,96
2023-05-15T00:27:50.494Z,96
2023-05-15T00:28:22.521Z,96
2023-05-15T00:28:54.285Z,96
2023-05-15T00:29:26.293Z,96
2023-05-15T00:29:58.426Z,96
2023-05-15T00:30:30.854Z,96
2023-05-15T00:31:02.638Z,96
2023-05-15T00:31:18.468Z,96
2023-05-15T00:31:50.368Z,96
2023-05-15T00:32:34.280Z,96
2023-05-15T00:33:06.207Z,96
2023-05-15T00:33:38.194Z,96
2023-05-15T00:34:10.473Z,96
2023-05-15T00:34:42.041Z,96
2023-05-15T00:35:14.484Z,96
2023-05-15T00:35:46.014Z,97
2023-05-15T00:36:02.716Z,97
2023-05-15T00:36:46.153Z,97
2023-05-15T00:37:17.937Z,97
2023-05-15T00:37:50.178Z,97
2023-05-15T00:38:21.886Z,97
2023-05-15T00:38:53.976Z,97
2023-05-15T00:39:25.847Z,97
2023-05-15T00:39:57.965Z,97
2023-05-15T00:40:30.327Z,97
2023-05-15T00:41:02.245Z,97
2023-05-15T00:41:33.996Z,97
2023-05-15T00:42:05.904Z,97
2023-05-15T00:42:37.691Z,97
2023-05-15T00:43:09.973Z,97
2023-05-15T00:43:41.682Z,97
2023-05-15T00:44:14.151Z,97
2023-05-15T00:44:45.723Z,97
2023-05-15T00:45:19.444Z,97
2023-05-15T00:45:49.984Z,97
2023-05-15T00:46:21.768Z,97
2023-05-15T00:46:53.531Z,97
2023-05-15T00:47:25.561Z,97
2023-05-15T00:47:57.616Z,97
2023-05-15T00:48:29.681Z,97
2023-05-15T00:49:01.873Z,97
2023-05-15T00:49:17.360Z,97
2023-05-15T00:49:49.808Z,97
2023-05-15T00:50:33.873Z,97
2023-05-15T00:51:05.592Z,97
2023-05-15T00:51:37.332Z,97
2023-05-15T00:52:09.533Z,97
2023-05-15T00:52:41.429Z,97
2023-05-15T00:53:13.375Z,97
2023-05-15T00:53:45.208Z,97
2023-05-15T00:54:01.739Z,97
2023-05-15T00:54:45.197Z,97
2023-05-15T00:55:17.377Z,97
2023-05-15T00:55:49.521Z,97
2023-05-15T00:56:21.125Z,97
2023-05-15T00:56:53.279Z,97
2023-05-15T00:57:25.228Z,97
2023-05-15T00:57:57.155Z,97
2023-05-15T00:58:29.226Z,97
2023-05-15T00:59:01.269Z,97
2023-05-15T00:59:33.074Z,97
2023-05-15T01:00:06.350Z,97
2023-05-15T01:00:36.933Z,97
2023-05-15T01:01:08.967Z,97
2023-05-15T01:01:41.382Z,97
2023-05-15T01:02:13.082Z,97
2023-05-15T01:02:44.782Z,97
2023-05-15T01:03:16.876Z,97
2023-05-15T01:03:33.024Z,97
2023-05-15T01:04:16.916Z,97
2023-05-15T01:04:49.453Z,97
2023-05-15T01:05:21.376Z,97
2023-05-15T01:05:52.887Z,97
2023-05-15T01:06:24.916Z,97
2023-05-15T01:06:56.862Z,97
2023-05-15T01:07:28.707Z,97
2023-05-15T01:08:01.143Z,97
2023-05-15T01:08:32.673Z,97
2023-05-15T01:09:05.545Z,97
2023-05-15T01:09:36.541Z,97
2023-05-15T01:10:08.733Z,97
2023-05-15T01:10:40.760Z,97
2023-05-15T01:11:12.707Z,97
2023-05-15T01:11:44.483Z,97
2023-05-15T01:12:16.546Z,97
2023-05-15T01:12:48.899Z,97
2023-05-15T01:13:20.771Z,97
2023-05-15T01:13:52.354Z,97
2023-05-15T01:14:24.430Z,97
2023-05-15T01:14:56.495Z,97
2023-05-15T01:15:29.069Z,97
2023-05-15T01:16:00.626Z,97
2023-05-15T01:16:16.559Z,97
2023-05-15T01:17:00.530Z,97
2023-05-15T01:17:32.411Z,97
2023-05-15T01:18:05.612Z,97
2023-05-15T01:18:36.504Z,97
2023-05-15T01:19:08.217Z,97
2023-05-15T01:19:40.532Z,97
2023-05-15T01:20:12.458Z,97
2023-05-15T01:20:44.139Z,97
2023-05-15T01:21:00.502Z,97
2023-05-15T01:21:32.121Z,97
2023-05-15T01:21:48.102Z,97
2023-05-15T01:22:20.431Z,97
2023-05-15T01:22:52.050Z,97
2023-05-15T01:23:08.173Z,97
2023-05-15T01:23:40.296Z,97
2023-05-15T01:24:24.113Z,97
2023-05-15T01:24:56.142Z,97
2023-05-15T01:25:28.213Z,97
2023-05-15T01:26:00.115Z,97
2023-05-15T01:26:32.068Z,97
2023-05-15T01:27:04.665Z,97
2023-05-15T01:27:35.729Z,97
2023-05-15T01:28:07.996Z,97
2023-05-15T01:28:39.967Z,97
2023-05-15T01:29:11.997Z,97
2023-05-15T01:29:43.864Z,97
2023-05-15T01:30:01.305Z,97
2023-05-15T01:30:43.780Z,97
2023-05-15T01:31:15.772Z,97
2023-05-15T01:31:47.735Z,97
2023-05-15T01:32:20.127Z,97
2023-05-15T01:32:51.640Z,97
2023-05-15T01:33:23.738Z,97
2023-05-15T01:33:55.617Z,97
2023-05-15T01:34:27.534Z,97
2023-05-15T01:34:59.686Z,97
2023-05-15T01:35:31.924Z,97
2023-05-15T01:36:04.219Z,97
2023-05-15T01:36:35.529Z,97
2023-05-15T01:37:07.391Z,97
2023-05-15T01:37:39.518Z,97
2023-05-15T01:38:11.513Z,97
2023-05-15T01:38:43.476Z,97
2023-05-15T01:39:15.350Z,97
2023-05-15T01:39:47.406Z,97
2023-05-15T01:40:19.992Z,97
2023-05-15T01:40:51.478Z,97
2023-05-15T01:41:23.433Z,97
2023-05-15T01:41:55.302Z,97
2023-05-15T01:42:27.207Z,97
2023-05-15T01:42:59.412Z,97
2023-05-15T01:43:31.323Z,97
2023-05-15T01:44:03.509Z,97
2023-05-15T01:44:35.238Z,97
2023-05-15T01:45:08.212Z,97
2023-05-15T01:45:39.040Z,97
2023-05-15T01:46:11.274Z,97
2023-05-15T01:46:43.329Z,97
2023-05-15T01:47:14.968Z,97
2023-05-15T01:47:31.195Z,97
2023-05-15T01:48:03.479Z,97
2023-05-15T01:48:47.117Z,97
2023-05-15T01:49:19.425Z,97
2023-05-15T01:49:51.006Z,97
2023-05-15T01:50:23.272Z,97
2023-05-15T01:50:54.932Z,97
2023-05-15T01:51:26.940Z,97
2023-05-15T01:51:59.063Z,97
2023-05-15T01:52:14.894Z,97
2023-05-15T01:52:58.975Z,97
2023-05-15T01:53:30.864Z,97
2023-05-15T01:54:03.406Z,97
2023-05-15T01:54:34.881Z,97
2023-05-15T01:55:06.893Z,97
2023-05-15T01:55:38.790Z,97
2023-05-15T01:56:11.152Z,97
2023-05-15T01:56:42.611Z,97
2023-05-15T01:56:59.047Z,97
2023-05-15T01:57:30.642Z,97
2023-05-15T01:57:46.624Z,97
2023-05-15T01:58:18.784Z,97
2023-05-15T01:58:51.034Z,97
2023-05-15T01:59:22.509Z,97
2023-05-15T01:59:54.523Z,97
2023-05-15T02:00:27.034Z,97
2023-05-15T02:00:58.398Z,97
2023-05-15T02:01:14.592Z,97
2023-05-15T02:01:46.608Z,97
2023-05-15T02:02:30.736Z,97
2023-05-15T02:03:03.131Z,97
2023-05-15T02:03:34.562Z,97
2023-05-15T02:04:06.483Z,97
2023-05-15T02:04:38.326Z,97
2023-05-15T02:05:10.660Z,97
2023-05-15T02:05:42.192Z,97
2023-05-15T02:05:58.733Z,97
2023-05-15T02:06:42.152Z,97
2023-05-15T02:07:14.402Z,97
2023-05-15T02:07:46.350Z,97
2023-05-15T02:08:17.981Z,97
2023-05-15T02:08:50.497Z,97
2023-05-15T02:09:22.311Z,97
2023-05-15T02:09:54.107Z,97
2023-05-15T02:10:26.405Z,97
2023-05-15T02:10:58.065Z,97
2023-05-15T02:11:30.366Z,97
2023-05-15T02:12:02.742Z,97
2023-05-15T02:12:33.949Z,97
2023-05-15T02:13:06.008Z,97
2023-05-15T02:13:37.987Z,97
2023-05-15T02:14:10.127Z,97
2023-05-15T02:14:41.907Z,97
2023-05-15T02:14:57.933Z,97
2023-05-15T02:15:30.505Z,97
2023-05-15T02:15:46.034Z,97
2023-05-15T02:16:18.082Z,97
2023-05-15T02:16:50.324Z,97
2023-05-15T02:17:21.899Z,97
2023-05-15T02:17:53.934Z,97
2023-05-15T02:18:26.063Z,97
2023-05-15T02:18:57.729Z,97
2023-05-15T02:19:13.882Z,97
2023-05-15T02:19:45.606Z,97
2023-05-15T02:20:30.179Z,97
2023-05-15T02:21:02.400Z,97
2023-05-15T02:21:33.425Z,97
2023-05-15T02:22:05.721Z,97
2023-05-15T02:22:37.651Z,97
2023-05-15T02:23:09.571Z,97
2023-05-15T02:23:41.480Z,97
2023-05-15T02:23:57.566Z,97
2023-05-15T02:24:41.614Z,97
2023-05-15T02:25:14.930Z,97
2023-05-15T02:25:45.611Z,97
2023-05-15T02:26:17.418Z,97
2023-05-15T02:26:49.749Z,97
2023-05-15T02:27:21.449Z,97
2023-05-15T02:27:53.602Z,97
2023-05-15T02:28:25.359Z,97
2023-05-15T02:28:57.341Z,97
2023-05-15T02:29:29.723Z,97
2023-05-15T02:30:03.690Z,97
2023-05-15T02:30:33.229Z,97
2023-05-15T02:31:05.398Z,97
2023-05-15T02:31:37.251Z,97
2023-05-15T02:32:09.644Z,97
2023-05-15T02:32:41.189Z,97
2023-05-15T02:33:13.346Z,97
2023-05-15T02:33:45.182Z,97
2023-05-15T02:34:17.208Z,97
2023-05-15T02:34:49.252Z,97
2023-05-15T02:35:21.375Z,97
2023-05-15T02:35:53.153Z,97
2023-05-15T02:36:25.085Z,97
2023-05-15T02:36:56.980Z,97
2023-05-15T02:37:13.055Z,97
2023-05-15T02:37:45.124Z,97
2023-05-15T02:38:29.249Z,97
2023-05-15T02:39:01.420Z,97
2023-05-15T02:39:32.782Z,97
2023-05-15T02:40:05.320Z,96
2023-05-15T02:40:36.816Z,97
2023-05-15T02:41:09.005Z,97
2023-05-15T02:41:40.774Z,97
2023-05-15T02:41:56.890Z,97
2023-05-15T02:42:40.981Z,97
2023-05-15T02:42:56.992Z,97
2023-05-15T02:43:40.900Z,97
2023-05-15T02:44:12.713Z,97
2023-05-15T02:44:44.686Z,97
2023-05-15T02:45:17.780Z,97
2023-05-15T02:45:48.693Z,97
2023-05-15T02:46:21.026Z,97
2023-05-15T02:46:52.610Z,97
2023-05-15T02:47:24.420Z,97
2023-05-15T02:47:56.723Z,96
2023-05-15T02:48:28.672Z,96
2023-05-15T02:49:00.587Z,96
2023-05-15T02:49:32.387Z,97
2023-05-15T02:50:04.942Z,97
2023-05-15T02:50:36.400Z,96
2023-05-15T02:51:08.359Z,96
2023-05-15T02:51:40.453Z,96
2023-05-15T02:52:12.357Z,97
2023-05-15T02:52:44.462Z,96
2023-05-15T02:53:16.160Z,97
2023-05-15T02:53:48.297Z,96
2023-05-15T02:54:20.482Z,97
2023-05-15T02:54:52.268Z,97
2023-05-15T02:55:26.273Z,97
2023-05-15T02:55:56.254Z,96
2023-05-15T02:56:28.206Z,96
2023-05-15T02:57:00.559Z,96
2023-05-15T02:57:32.179Z,97
2023-05-15T02:58:04.136Z,96
2023-05-15T02:58:36.176Z,97
2023-05-15T02:59:08.137Z,97
2023-05-15T02:59:39.872Z,96
2023-05-15T02:59:56.179Z,97
2023-05-15T03:00:40.592Z,97
2023-05-15T03:01:12.147Z,97
2023-05-15T03:01:44.194Z,97
2023-05-15T03:02:15.860Z,97
2023-05-15T03:02:48.103Z,96
2023-05-15T03:03:20.250Z,97
2023-05-15T03:03:51.849Z,96
2023-05-15T03:04:23.934Z,96
2023-05-15T03:04:55.895Z,96
2023-05-15T03:05:28.515Z,96
2023-05-15T03:06:00.164Z,96
2023-05-15T03:06:31.714Z,96
2023-05-15T03:07:04.089Z,96
2023-05-15T03:07:35.896Z,96
2023-05-15T03:08:07.619Z,96
2023-05-15T03:08:39.764Z,96
2023-05-15T03:08:55.852Z,96
2023-05-15T03:09:27.840Z,96
2023-05-15T03:09:43.771Z,96
2023-05-15T03:10:15.851Z,96
2023-05-15T03:10:47.492Z,96
2023-05-15T03:11:19.833Z,96
2023-05-15T03:11:51.588Z,96
2023-05-15T03:12:23.733Z,96
2023-05-15T03:12:55.313Z,96
2023-05-15T03:13:27.647Z,96
2023-05-15T03:13:59.778Z,96
2023-05-15T03:14:31.461Z,96
2023-05-15T03:15:06.786Z,96
2023-05-15T03:15:35.513Z,96
2023-05-15T03:16:07.473Z,96
2023-05-15T03:16:39.573Z,96
2023-05-15T03:17:11.307Z,96
2023-05-15T03:17:27.471Z,96
2023-05-15T03:17:59.817Z,96
2023-05-15T03:18:43.221Z,96
2023-05-15T03:19:15.264Z,97
2023-05-15T03:19:47.138Z,97
2023-05-15T03:20:19.568Z,97
2023-05-15T03:20:51.355Z,97
2023-05-15T03:21:23.284Z,97
2023-05-15T03:21:54.978Z,97
2023-05-15T03:22:11.243Z,97
2023-05-15T03:22:55.156Z,97
2023-05-15T03:23:27.188Z,97
2023-05-15T03:23:58.941Z,97
2023-05-15T03:24:31.028Z,97
2023-05-15T03:25:04.298Z,97
2023-05-15T03:25:35.125Z,97
2023-05-15T03:26:06.829Z,97
2023-05-15T03:26:38.968Z,97
2023-05-15T03:26:54.989Z,97
2023-05-15T03:27:26.910Z,97
2023-05-15T03:27:42.951Z,97
2023-05-15T03:28:14.816Z,97
2023-05-15T03:28:46.790Z,97
2023-05-15T03:29:18.747Z,97
2023-05-15T03:29:51.119Z,97
2023-05-15T03:30:23.173Z,97
2023-05-15T03:30:54.794Z,97
2023-05-15T03:31:11.003Z,97
2023-05-15T03:31:42.796Z,97
2023-05-15T03:32:26.840Z,97
2023-05-15T03:32:58.751Z,97
2023-05-15T03:33:14.821Z,97
2023-05-15T03:33:46.689Z,97
2023-05-15T03:34:31.208Z,97
2023-05-15T03:35:03.750Z,97
2023-05-15T03:35:34.385Z,97
2023-05-15T03:36:06.525Z,97
2023-05-15T03:36:38.665Z,97
2023-05-15T03:37:10.708Z,97
2023-05-15T03:37:42.439Z,97
2023-05-15T03:38:14.420Z,97
2023-05-15T03:38:46.422Z,97
2023-05-15T03:39:18.456Z,97
2023-05-15T03:39:50.493Z,97
2023-05-15T03:40:22.546Z,97
2023-05-15T03:40:54.443Z,97
2023-05-15T03:41:26.348Z,97
2023-05-15T03:41:58.154Z,97
2023-05-15T03:42:30.661Z,97
2023-05-15T03:43:02.909Z,97
2023-05-15T03:43:34.161Z,97
2023-05-15T03:44:06.192Z,97
2023-05-15T03:44:38.106Z,97
2023-05-15T03:45:12.448Z,97
2023-05-15T03:45:42.262Z,97
2023-05-15T03:46:14.870Z,97
2023-05-15T03:46:46.036Z,97
2023-05-15T03:47:17.948Z,97
2023-05-15T03:47:50.384Z,97
2023-05-15T03:48:21.924Z,97
2023-05-15T03:48:54.187Z,97
2023-05-15T03:49:26.152Z,97
2023-05-15T03:49:58.208Z,97
2023-05-15T03:50:31.030Z,97
2023-05-15T03:51:02.600Z,97
2023-05-15T03:51:34.059Z,97
2023-05-15T03:52:06.165Z,97
2023-05-15T03:52:40.003Z,97
2023-05-15T03:52:54.174Z,97
2023-05-15T03:53:37.981Z,97
2023-05-15T03:54:10.137Z,97
2023-05-15T03:54:42.101Z,97
2023-05-15T03:55:14.136Z,97
2023-05-15T03:55:45.880Z,97
2023-05-15T03:56:17.954Z,97
2023-05-15T03:56:50.327Z,97
2023-05-15T03:57:21.793Z,97
2023-05-15T03:57:54.333Z,97
2023-05-15T03:58:25.709Z,97
2023-05-15T03:58:57.942Z,97
2023-05-15T03:59:30.320Z,97
2023-05-15T04:00:04.426Z,97
2023-05-15T04:00:33.821Z,97
2023-05-15T04:01:05.842Z,97
2023-05-15T04:01:44.266Z,97
2023-05-15T04:02:04.785Z,97
2023-05-15T04:02:25.734Z,97
2023-05-15T04:03:09.940Z,97
2023-05-15T04:03:41.741Z,97
2023-05-15T04:04:13.449Z,97
2023-05-15T04:04:45.612Z,97
2023-05-15T04:05:19.397Z,97
2023-05-15T04:05:49.709Z,97
2023-05-15T04:06:21.495Z,97
2023-05-15T04:06:53.543Z,97
2023-05-15T04:07:09.667Z,97
2023-05-15T04:07:41.436Z,97
2023-05-15T04:08:25.442Z,97
2023-05-15T04:08:57.380Z,97
2023-05-15T04:09:29.696Z,97
2023-05-15T04:10:02.735Z,97
2023-05-15T04:10:33.515Z,97
2023-05-15T04:11:05.389Z,97
2023-05-15T04:11:37.237Z,97
2023-05-15T04:11:53.514Z,97
2023-05-15T04:12:37.254Z,97
2023-05-15T04:13:09.506Z,97
2023-05-15T04:13:41.208Z,97
2023-05-15T04:14:13.197Z,97
2023-05-15T04:14:45.173Z,97
2023-05-15T04:15:18.561Z,97
2023-05-15T04:15:49.006Z,97
2023-05-15T04:16:21.078Z,97
2023-05-15T04:16:53.221Z,97
2023-05-15T04:17:25.144Z,97
2023-05-15T04:17:56.930Z,97
2023-05-15T04:18:29.181Z,97
2023-05-15T04:19:01.169Z,97
2023-05-15T04:19:32.957Z,97
2023-05-15T04:20:05.236Z,97
2023-05-15T04:20:36.868Z,97
2023-05-15T04:21:09.062Z,97
2023-05-15T04:21:40.921Z,97
2023-05-15T04:22:12.828Z,97
2023-05-15T04:22:44.836Z,97
2023-05-15T04:23:16.773Z,97
2023-05-15T04:23:48.871Z,97
2023-05-15T04:24:20.660Z,97
2023-05-15T04:24:52.671Z,97
2023-05-15T04:25:27.639Z,97
2023-05-15T04:25:56.740Z,97
2023-05-15T04:26:28.588Z,97
2023-05-15T04:27:00.851Z,97
2023-05-15T04:27:32.618Z,97
2023-05-15T04:28:05.133Z,97
2023-05-15T04:28:36.641Z,97
2023-05-15T04:29:03.581Z,97
2023-05-15T04:29:36.626Z,97
2023-05-15T04:30:10.004Z,96
2023-05-15T04:30:40.749Z,96
2023-05-15T04:31:12.571Z,96
2023-05-15T04:31:44.377Z,96
2023-05-15T04:32:16.634Z,96
2023-05-15T04:32:48.560Z,96
2023-05-15T04:33:20.680Z,96
2023-05-15T04:33:52.356Z,96
2023-05-15T04:34:24.393Z,96
2023-05-15T04:34:56.295Z,96
2023-05-15T04:35:29.926Z,96
2023-05-15T04:36:00.501Z,96
2023-05-15T04:36:32.275Z,96
2023-05-15T04:37:04.821Z,96
2023-05-15T04:37:37.363Z,96
2023-05-15T04:38:08.135Z,96
2023-05-15T04:38:40.420Z,96
2023-05-15T04:39:12.413Z,96
2023-05-15T04:39:43.886Z,96
2023-05-15T04:40:18.734Z,96
2023-05-15T04:40:48.138Z,96
2023-05-15T04:41:20.106Z,96
2023-05-15T04:41:51.959Z,96
2023-05-15T04:42:08.015Z,96
2023-05-15T04:42:40.056Z,96
2023-05-15T04:43:23.994Z,96
2023-05-15T04:43:55.822Z,96
2023-05-15T04:44:27.797Z,96
2023-05-15T04:45:00.032Z,96
2023-05-15T04:45:32.257Z,96
2023-05-15T04:46:05.621Z,96
2023-05-15T04:46:35.870Z,96
2023-05-15T04:47:07.807Z,96
2023-05-15T04:47:40.088Z,96
2023-05-15T04:48:11.801Z,96
2023-05-15T04:48:43.903Z,96
2023-05-15T04:49:15.777Z,96
2023-05-15T04:49:47.551Z,96
2023-05-15T04:50:20.026Z,96
2023-05-15T04:50:51.786Z,95
2023-05-15T04:51:23.740Z,95
2023-05-15T04:51:55.628Z,95
2023-05-15T04:52:29.029Z,95
2023-05-15T04:52:59.707Z,95
2023-05-15T04:53:31.496Z,94
2023-05-15T04:54:04.470Z,94
2023-05-15T04:54:35.489Z,95
2023-05-15T04:55:09.786Z,94
2023-05-15T04:55:39.785Z,92
2023-05-15T04:56:11.379Z,92
2023-05-15T04:56:43.794Z,92
2023-05-15T04:57:15.507Z,92
2023-05-15T04:57:47.144Z,91
2023-05-15T04:58:19.541Z,92
2023-05-15T04:58:51.428Z,92
2023-05-15T04:59:23.293Z,92
2023-05-15T04:59:55.189Z,92
2023-05-15T05:00:29.466Z,91
2023-05-15T05:01:00.864Z,91
2023-05-15T05:01:31.717Z,92
2023-05-15T05:02:04.189Z,92
2023-05-15T05:02:35.238Z,91
2023-05-15T05:03:07.322Z,90
2023-05-15T05:03:39.559Z,90
2023-05-15T05:04:12.678Z,89
2023-05-15T05:04:43.260Z,89
2023-05-15T05:05:16.922Z,89
2023-05-15T05:05:46.967Z,88
2023-05-15T05:06:19.264Z,87
2023-05-15T05:06:51.241Z,87
2023-05-15T05:07:23.058Z,86
2023-05-15T05:07:39.509Z,87
2023-05-15T05:08:11.027Z,87
2023-05-15T05:08:55.039Z,86
2023-05-15T05:09:26.770Z,85
2023-05-15T05:09:58.826Z,84
2023-05-15T05:10:34.208Z,84
2023-05-15T05:11:03.243Z,83
2023-05-15T05:11:34.669Z,83
2023-05-15T05:11:50.926Z,83
2023-05-15T05:12:22.662Z,82
2023-05-15T05:12:38.933Z,82
2023-05-15T05:13:10.791Z,82
2023-05-15T05:13:42.585Z,82
2023-05-15T05:14:14.635Z,82
2023-05-15T05:14:46.655Z,82
2023-05-15T05:15:20.204Z,82
2023-05-15T05:15:50.674Z,82
2023-05-15T05:16:06.745Z,83
2023-05-15T05:16:38.400Z,83
2023-05-15T05:17:22.733Z,83
2023-05-15T05:17:54.617Z,82
2023-05-15T05:18:10.959Z,82
2023-05-15T05:18:42.550Z,83
2023-05-15T05:19:26.371Z,83
2023-05-15T05:19:58.267Z,83
2023-05-15T05:20:37.460Z,82
2023-05-15T05:21:02.627Z,82
2023-05-15T05:21:34.323Z,82
2023-05-15T05:22:06.413Z,82
2023-05-15T05:22:38.093Z,82
2023-05-15T05:23:10.586Z,83
2023-05-15T05:23:42.237Z,83
2023-05-15T05:24:14.369Z,84
2023-05-15T05:24:46.118Z,84
2023-05-15T05:25:20.137Z,84
2023-05-15T05:25:50.279Z,84
2023-05-15T05:26:22.288Z,84
2023-05-15T05:26:53.937Z,84
2023-05-15T05:27:25.996Z,84
2023-05-15T05:27:57.992Z,84
2023-05-15T05:28:30.134Z,84
2023-05-15T05:29:02.643Z,85
2023-05-15T05:29:34.081Z,84
2023-05-15T05:30:08.733Z,84
2023-05-15T05:30:38.161Z,85
2023-05-15T05:31:09.943Z,85
2023-05-15T05:31:41.963Z,85
2023-05-15T05:32:13.911Z,85
2023-05-15T05:32:45.935Z,85
2023-05-15T05:33:17.678Z,85
2023-05-15T05:33:49.958Z,86
2023-05-15T05:34:23.412Z,85
2023-05-15T05:34:53.864Z,86
2023-05-15T05:35:27.970Z,85
2023-05-15T05:35:57.784Z,86
2023-05-15T05:36:29.781Z,86
2023-05-15T05:37:01.984Z,86
2023-05-15T05:37:33.669Z,86
2023-05-15T05:38:05.673Z,86
2023-05-15T05:38:37.738Z,86
2023-05-15T05:39:09.899Z,86
2023-05-15T05:39:41.554Z,86
2023-05-15T05:40:13.807Z,86
2023-05-15T05:40:45.573Z,86
2023-05-15T05:41:17.471Z,87
2023-05-15T05:41:49.650Z,87
2023-05-15T05:42:05.603Z,87
2023-05-15T05:42:49.545Z,86
2023-05-15T05:43:21.734Z,87
2023-05-15T05:43:53.511Z,86
2023-05-15T05:44:25.343Z,87
2023-05-15T05:44:57.323Z,87
2023-05-15T05:45:30.010Z,87
2023-05-15T05:46:01.608Z,87
2023-05-15T05:46:33.105Z,87
2023-05-15T05:47:05.674Z,86
2023-05-15T05:47:21.489Z,87
2023-05-15T05:48:05.765Z,86
2023-05-15T05:48:37.257Z,86
2023-05-15T05:49:09.385Z,87
2023-05-15T05:49:41.290Z,87
2023-05-15T05:50:16.145Z,86
2023-05-15T05:50:45.188Z,86
2023-05-15T05:51:16.956Z,86
2023-05-15T05:51:49.426Z,86
2023-05-15T05:52:22.432Z,86
2023-05-15T05:52:53.480Z,86
2023-05-15T05:53:25.210Z,85
2023-05-15T05:53:57.233Z,85
2023-05-15T05:54:29.324Z,85
2023-05-15T05:55:01.993Z,85
2023-05-15T05:55:32.981Z,84
2023-05-15T05:55:49.670Z,84
2023-05-15T05:56:33.152Z,85
2023-05-15T05:57:05.608Z,85
2023-05-15T05:57:37.233Z,84
2023-05-15T05:58:24.044Z,83
2023-05-15T05:58:41.437Z,84
2023-05-15T05:59:13.090Z,83
2023-05-15T05:59:45.036Z,83
2023-05-15T06:00:18.728Z,83
2023-05-15T06:00:48.883Z,83
2023-05-15T06:01:21.074Z,82
2023-05-15T06:01:52.994Z,82
2023-05-15T06:02:24.774Z,82
2023-05-15T06:02:57.070Z,82
2023-05-15T06:03:29.120Z,82
2023-05-15T06:04:00.867Z,81
2023-05-15T06:04:32.898Z,81
2023-05-15T06:04:49.045Z,81
2023-05-15T06:05:21.305Z,81
2023-05-15T06:05:36.837Z,81
2023-05-15T06:06:08.669Z,80
2023-05-15T06:06:40.936Z,80
2023-05-15T06:07:12.623Z,82
2023-05-15T06:07:44.867Z,80
2023-05-15T06:08:16.567Z,80
2023-05-15T06:08:48.775Z,79
2023-05-15T06:09:05.006Z,78
2023-05-15T06:09:36.491Z,78
2023-05-15T06:10:27.780Z,78
2023-05-15T06:10:52.474Z,80
2023-05-15T06:11:25.431Z,78
2023-05-15T06:11:56.540Z,79
2023-05-15T06:12:28.972Z,78
2023-05-15T06:13:00.572Z,78
2023-05-15T06:13:32.520Z,79
2023-05-15T06:14:05.212Z,77
2023-05-15T06:14:36.491Z,78
2023-05-15T06:15:08.710Z,77
2023-05-15T06:15:40.796Z,78
2023-05-15T06:16:12.471Z,77
2023-05-15T06:16:44.312Z,76
2023-05-15T06:17:16.252Z,75
2023-05-15T06:17:48.284Z,75
2023-05-15T06:18:20.483Z,75
2023-05-15T06:18:36.240Z,76
2023-05-15T06:19:08.423Z,77
2023-05-15T06:19:52.172Z,78
2023-05-15T06:20:27.433Z,79
2023-05-15T06:20:56.032Z,79
2023-05-15T06:21:12.129Z,78
2023-05-15T06:21:56.105Z,79
2023-05-15T06:22:28.207Z,78
2023-05-15T06:23:00.299Z,78
2023-05-15T06:23:31.850Z,78
2023-05-15T06:24:04.954Z,78
2023-05-15T06:24:35.920Z,76
2023-05-15T06:25:08.556Z,78
2023-05-15T06:25:39.978Z,77
2023-05-15T06:26:11.994Z,77
2023-05-15T06:26:43.986Z,77
2023-05-15T06:27:16.049Z,77
2023-05-15T06:27:49.531Z,75
2023-05-15T06:28:04.914Z,76
2023-05-15T06:28:35.517Z,76
2023-05-15T06:29:20.080Z,74
2023-05-15T06:29:51.811Z,75
2023-05-15T06:30:24.397Z,76
2023-05-15T06:30:55.819Z,76
2023-05-15T06:31:27.613Z,76
2023-05-15T06:31:59.827Z,77
2023-05-15T06:32:32.520Z,78
2023-05-15T06:32:47.832Z,78
2023-05-15T06:33:36.824Z,78
2023-05-15T06:34:04.503Z,78
2023-05-15T06:34:35.544Z,77
2023-05-15T06:35:07.740Z,75
2023-05-15T06:35:39.652Z,74
2023-05-15T06:36:11.633Z,74
2023-05-15T06:36:43.584Z,76
2023-05-15T06:37:15.424Z,75
2023-05-15T06:37:47.499Z,74
2023-05-15T06:38:19.826Z,73
2023-05-15T06:38:51.532Z,73
2023-05-15T06:39:23.438Z,73
2023-05-15T06:39:55.359Z,74
2023-05-15T06:40:33.874Z,73
2023-05-15T06:40:59.223Z,74
2023-05-15T06:41:31.313Z,72
2023-05-15T06:42:04.357Z,72
2023-05-15T06:42:35.278Z,72
2023-05-15T06:43:07.225Z,72
2023-05-15T06:43:39.161Z,72
2023-05-15T06:44:11.312Z,72
2023-05-15T06:44:43.345Z,72
2023-05-15T06:45:16.717Z,72
2023-05-15T06:45:47.151Z,73
2023-05-15T06:46:19.201Z,74
2023-05-15T06:46:51.543Z,76
2023-05-15T06:47:23.106Z,75
2023-05-15T06:47:55.046Z,75
2023-05-15T06:48:27.030Z,76
2023-05-15T06:48:59.226Z,75
2023-05-15T06:49:30.992Z,76
2023-05-15T06:49:47.067Z,75
2023-05-15T06:50:38.991Z,75
2023-05-15T06:51:03.723Z,75
2023-05-15T06:51:34.824Z,75
2023-05-15T06:52:06.703Z,76
2023-05-15T06:52:38.771Z,77
2023-05-15T06:53:13.018Z,75
2023-05-15T06:53:44.641Z,76
2023-05-15T06:54:14.623Z,73
2023-05-15T06:54:46.701Z,72
2023-05-15T06:55:20.765Z,72
2023-05-15T06:55:50.954Z,73
2023-05-15T06:56:22.658Z,73
2023-05-15T06:56:54.536Z,73
2023-05-15T06:57:26.671Z,74
2023-05-15T06:57:58.733Z,74
2023-05-15T06:58:30.660Z,74
2023-05-15T06:58:46.647Z,74
2023-05-15T06:59:18.505Z,74
2023-05-15T06:59:34.549Z,75
2023-05-15T07:00:07.196Z,74
2023-05-15T07:00:38.429Z,75
2023-05-15T07:01:10.589Z,75
2023-05-15T07:01:42.484Z,74
2023-05-15T07:02:14.454Z,74
2023-05-15T07:02:46.234Z,73
2023-05-15T07:03:03.027Z,73
2023-05-15T07:03:36.370Z,72
2023-05-15T07:04:18.392Z,72
2023-05-15T07:04:50.782Z,73
2023-05-15T07:05:22.573Z,71
2023-05-15T07:05:54.318Z,71
2023-05-15T07:06:26.259Z,71
2023-05-15T07:06:58.256Z,72
2023-05-15T07:07:30.232Z,72
2023-05-15T07:07:46.400Z,70
2023-05-15T07:08:30.121Z,70
2023-05-15T07:09:02.854Z,70
2023-05-15T07:09:34.102Z,70
2023-05-15T07:10:06.263Z,71
2023-05-15T07:10:37.970Z,72
2023-05-15T07:11:11.953Z,73
2023-05-15T07:11:42.089Z,73
2023-05-15T07:12:13.942Z,72
2023-05-15T07:12:45.912Z,73
2023-05-15T07:13:02.829Z,73
2023-05-15T07:13:53.080Z,74
2023-05-15T07:14:18.091Z,73
2023-05-15T07:14:50.192Z,73
2023-05-15T07:15:24.509Z,73
2023-05-15T07:15:54.001Z,73
2023-05-15T07:16:25.810Z,74
2023-05-15T07:16:57.725Z,75
2023-05-15T07:17:30.235Z,74
2023-05-15T07:18:02.528Z,75
2023-05-15T07:18:33.926Z,74
2023-05-15T07:19:05.721Z,74
2023-05-15T07:19:37.757Z,74
2023-05-15T07:20:10.073Z,73
2023-05-15T07:20:48.467Z,73
2023-05-15T07:21:13.655Z,74
2023-05-15T07:21:45.518Z,73
2023-05-15T07:22:03.476Z,73
2023-05-15T07:22:38.761Z,73
2023-05-15T07:23:19.501Z,73
2023-05-15T07:23:49.602Z,73
2023-05-15T07:24:21.584Z,74
2023-05-15T07:24:53.540Z,74
2023-05-15T07:25:26.152Z,74
2023-05-15T07:25:57.497Z,73
2023-05-15T07:26:36.322Z,73
2023-05-15T07:27:03.588Z,73
2023-05-15T07:27:33.392Z,73
2023-05-15T07:28:05.467Z,73